Time;durP1;ratioP1;P1;durP2;ratioP2;P2;SDS_P1;SDS_P2;PMS_P1;PMS_P2;Temp;Humidity;BMP_temperature;BMP_pressure;BME280_temperature;BME280_humidity;BME280_pressure;Samples;Min_cycle;Max_cycle;Signal;HPM_P1;HPM_P2
2024/03/11 00:01:20;;;;;;;10.93;7.10;;;20.80;72.60;;;;;;4984406;28;20205;-77
2024/03/11 00:03:46;;;;;;;10.70;6.97;;;20.80;71.70;;;;;;4980658;28;21498;-72
2024/03/11 00:06:13;;;;;;;8.35;7.55;;;20.80;71.60;;;;;;4980276;28;20197;-65
2024/03/11 00:08:40;;;;;;;8.48;7.65;;;20.80;71.50;;;;;;4978142;28;20202;-70
2024/03/11 00:11:11;;;;;;;10.00;6.43;;;21.10;71.70;;;;;;4979689;28;20193;-68
2024/03/11 00:13:38;;;;;;;10.30;7.35;;;20.80;71.40;;;;;;4977908;28;20632;-69
2024/03/11 00:16:06;;;;;;;8.82;6.57;;;20.80;71.50;;;;;;4981501;28;20197;-69
2024/03/11 00:18:33;;;;;;;8.75;7.68;;;20.80;71.50;;;;;;4980074;28;20280;-69
2024/03/11 00:21:00;;;;;;;11.82;7.30;;;20.80;72.20;;;;;;4979851;28;20220;-69
2024/03/11 00:23:27;;;;;;;9.48;7.80;;;20.80;71.20;;;;;;4980546;28;20213;-68
2024/03/11 00:25:53;;;;;;;8.68;6.88;;;21.10;71.60;;;;;;4986929;28;20212;-68
2024/03/11 00:28:20;;;;;;;11.75;6.70;;;20.80;71.10;;;;;;4987107;28;20387;-69
2024/03/11 00:30:47;;;;;;;8.60;6.25;;;20.80;71.10;;;;;;4983098;28;20219;-69
2024/03/11 00:33:17;;;;;;;7.95;6.20;;;20.60;70.90;;;;;;4983782;28;20204;-70
2024/03/11 00:35:45;;;;;;;7.38;6.10;;;20.80;71.10;;;;;;4986088;28;20221;-69
2024/03/11 00:38:12;;;;;;;12.48;7.13;;;20.80;71.10;;;;;;4984828;28;20296;-70
2024/03/11 00:40:39;;;;;;;10.18;7.35;;;20.80;70.90;;;;;;4984667;28;20213;-69
2024/03/11 00:43:06;;;;;;;7.97;7.18;;;20.80;70.80;;;;;;4983863;28;20201;-69
2024/03/11 00:45:33;;;;;;;9.43;6.93;;;20.80;70.80;;;;;;4987173;28;20839;-69
2024/03/11 00:47:59;;;;;;;9.82;8.35;;;20.80;70.70;;;;;;4986141;28;20461;-68
2024/03/11 00:50:28;;;;;;;7.22;6.05;;;20.80;70.70;;;;;;4985121;28;20680;-68
2024/03/11 00:52:54;;;;;;;7.28;6.57;;;21.00;71.00;;;;;;4978796;28;20212;-69
2024/03/11 00:55:22;;;;;;;8.65;6.45;;;20.70;70.70;;;;;;4985698;28;20604;-69
2024/03/11 00:57:49;;;;;;;8.77;6.30;;;20.70;70.40;;;;;;4983674;28;20201;-69
2024/03/11 01:00:20;;;;;;;8.90;6.13;;;20.70;70.60;;;;;;4980137;28;20205;-69
2024/03/11 01:02:49;;;;;;;8.10;5.25;;;20.70;70.50;;;;;;4980636;28;20313;-69
2024/03/11 01:05:16;;;;;;;8.90;6.13;;;20.70;70.40;;;;;;4983792;28;20274;-70
2024/03/11 01:07:45;;;;;;;6.90;5.72;;;20.70;70.50;;;;;;4981136;28;20201;-68
2024/03/11 01:10:12;;;;;;;10.13;5.40;;;20.70;70.40;;;;;;4981944;28;20334;-69
2024/03/11 01:12:41;;;;;;;8.52;6.43;;;20.70;70.50;;;;;;4984117;28;20665;-70
2024/03/11 01:15:09;;;;;;;7.82;5.55;;;20.60;70.30;;;;;;4986267;28;20363;-68
2024/03/11 01:17:37;;;;;;;8.73;6.30;;;20.60;70.20;;;;;;4979618;28;20190;-70
2024/03/11 01:20:04;;;;;;;6.45;5.68;;;20.60;70.30;;;;;;4978559;28;20197;-70
2024/03/11 01:22:31;;;;;;;6.40;5.78;;;20.60;70.30;;;;;;4979275;28;20688;-69
2024/03/11 01:24:59;;;;;;;8.05;5.88;;;20.50;70.20;;;;;;4980108;28;20204;-69
2024/03/11 01:27:25;;;;;;;12.55;7.38;;;20.60;70.20;;;;;;4982385;28;20201;-69
2024/03/11 01:29:52;;;;;;;9.43;6.55;;;20.60;70.20;;;;;;4984121;28;20201;-68
2024/03/11 01:32:19;;;;;;;8.20;5.78;;;20.70;70.30;;;;;;4987062;28;20200;-70
2024/03/11 01:34:45;;;;;;;7.60;6.80;;;20.60;70.20;;;;;;4984466;28;20311;-69
2024/03/11 01:37:12;;;;;;;6.18;5.63;;;20.70;70.20;;;;;;4980166;28;20193;-68
2024/03/11 01:39:44;;;;;;;6.68;5.72;;;20.60;70.10;;;;;;4986721;28;20204;-69
2024/03/11 01:42:14;;;;;;;7.15;5.50;;;20.60;70.10;;;;;;4984909;28;20666;-70
2024/03/11 01:44:42;;;;;;;6.25;5.25;;;20.60;70.10;;;;;;4985519;28;20356;-70
2024/03/11 01:47:09;;;;;;;7.22;5.90;;;20.60;70.00;;;;;;4988061;28;20287;-69
2024/03/11 01:49:36;;;;;;;6.72;6.00;;;20.60;70.00;;;;;;4986594;28;20228;-68
2024/03/11 01:52:06;;;;;;;6.80;6.15;;;20.60;70.00;;;;;;4983077;28;20204;-68
2024/03/11 01:54:33;;;;;;;5.88;4.70;;;20.40;69.80;;;;;;4980236;28;20641;-68
2024/03/11 01:57:01;;;;;;;9.32;6.10;;;20.60;70.00;;;;;;4977745;28;20200;-69
2024/03/11 01:59:32;;;;;;;5.53;4.97;;;20.40;69.70;;;;;;4977718;28;20677;-69
2024/03/11 02:01:58;;;;;;;7.50;5.53;;;20.60;70.00;;;;;;4978523;28;20220;-68
2024/03/11 02:04:26;;;;;;;8.48;6.10;;;20.60;70.00;;;;;;4975605;28;20201;-70
2024/03/11 02:06:53;;;;;;;6.45;5.80;;;20.90;70.40;;;;;;4979439;28;20208;-69
2024/03/11 02:09:19;;;;;;;8.10;6.03;;;20.60;70.00;;;;;;4981351;28;20204;-69
2024/03/11 02:11:47;;;;;;;7.30;5.55;;;20.60;70.00;;;;;;4958469;28;20709;-69
2024/03/11 02:14:13;;;;;;;6.15;5.65;;;20.60;69.70;;;;;;4977452;28;20219;-69
2024/03/11 02:16:42;;;;;;;6.22;5.35;;;20.50;69.80;;;;;;4974489;28;20632;-68
2024/03/11 02:19:12;;;;;;;6.47;5.88;;;20.40;69.70;;;;;;4977215;28;20878;-69
2024/03/11 02:21:46;;;;;;;7.93;6.07;;;20.50;69.70;;;;;;4980269;28;20728;-68
2024/03/11 02:24:16;;;;;;;6.20;5.38;;;20.40;69.70;;;;;;4980471;28;20680;-69
2024/03/11 02:26:45;;;;;;;5.95;5.38;;;20.50;69.80;;;;;;4977061;28;20339;-69
2024/03/11 02:29:12;;;;;;;6.43;5.20;;;20.50;69.80;;;;;;4974222;28;20200;-68
2024/03/11 02:31:38;;;;;;;6.60;5.65;;;20.50;69.70;;;;;;4979785;28;20840;-68
2024/03/11 02:34:05;;;;;;;7.22;5.80;;;20.70;70.00;;;;;;4983072;28;20232;-69
2024/03/11 02:36:32;;;;;;;6.22;5.63;;;20.50;69.80;;;;;;4983495;28;20252;-69
2024/03/11 02:38:59;;;;;;;9.48;5.55;;;20.50;69.70;;;;;;4978357;28;20284;-68
2024/03/11 02:41:27;;;;;;;5.82;5.22;;;20.50;69.70;;;;;;4983753;28;20759;-69
2024/03/11 02:43:54;;;;;;;7.10;6.03;;;20.40;69.60;;;;;;4983276;28;20287;-68
2024/03/11 02:46:21;;;;;;;6.97;5.25;;;20.40;69.60;;;;;;4977064;28;20790;-69
2024/03/11 02:48:48;;;;;;;7.00;5.80;;;20.40;69.70;;;;;;4982911;28;20200;-68
2024/03/11 02:51:14;;;;;;;8.82;4.88;;;20.80;70.10;;;;;;4979317;28;20784;-69
2024/03/11 02:53:40;;;;;;;8.15;5.30;;;20.50;69.70;;;;;;4977467;28;20193;-68
2024/03/11 02:56:08;;;;;;;6.00;5.40;;;20.50;69.50;;;;;;4981770;28;20888;-68
2024/03/11 02:58:38;;;;;;;6.13;5.45;;;20.50;69.70;;;;;;4979413;28;20767;-68
2024/03/11 03:01:05;;;;;;;6.15;5.47;;;20.50;69.60;;;;;;4982975;28;20223;-68
2024/03/11 03:03:32;;;;;;;4.73;4.30;;;20.50;69.70;;;;;;4981854;28;20197;-69
2024/03/11 03:05:59;;;;;;;5.18;4.78;;;20.40;69.60;;;;;;4988741;28;20475;-68
2024/03/11 03:08:26;;;;;;;5.65;4.82;;;20.20;69.40;;;;;;4986144;28;20569;-69
2024/03/11 03:10:53;;;;;;;6.07;5.57;;;20.40;69.60;;;;;;4977810;28;20208;-69
2024/03/11 03:13:20;;;;;;;6.28;5.43;;;20.40;69.60;;;;;;4984495;28;20208;-69
2024/03/11 03:15:49;;;;;;;5.60;5.10;;;20.40;69.60;;;;;;4979939;28;20783;-68
2024/03/11 03:18:15;;;;;;;7.00;5.30;;;20.40;69.60;;;;;;4972629;28;20197;-69
2024/03/11 03:20:42;;;;;;;5.65;5.05;;;20.60;69.70;;;;;;4976026;28;20208;-69
2024/03/11 03:23:09;;;;;;;5.22;4.78;;;20.40;69.40;;;;;;4978656;28;20898;-68
2024/03/11 03:25:35;;;;;;;6.00;4.72;;;20.40;69.50;;;;;;4978647;28;20200;-69
2024/03/11 03:28:03;;;;;;;4.72;4.32;;;20.40;69.50;;;;;;4974123;28;20204;-69
2024/03/11 03:30:29;;;;;;;5.22;4.50;;;20.40;69.50;;;;;;4979136;28;20812;-69
2024/03/11 03:32:58;;;;;;;6.05;5.45;;;20.40;69.50;;;;;;4973091;28;20273;-69
2024/03/11 03:35:25;;;;;;;5.25;4.75;;;20.40;69.50;;;;;;4973602;28;20222;-69
2024/03/11 03:37:52;;;;;;;6.28;4.38;;;20.40;69.60;;;;;;4973323;28;20193;-69
2024/03/11 03:40:19;;;;;;;6.20;5.10;;;20.40;69.50;;;;;;4976527;28;20196;-68
2024/03/11 03:42:47;;;;;;;4.60;4.20;;;20.40;69.40;;;;;;4977415;28;20500;-68
2024/03/11 03:45:14;;;;;;;5.20;4.63;;;20.40;70.30;;;;;;4982394;28;20200;-68
2024/03/11 03:47:42;;;;;;;5.93;4.75;;;20.40;69.50;;;;;;4979278;28;20204;-68
2024/03/11 03:50:11;;;;;;;6.07;4.82;;;20.40;69.40;;;;;;4978788;28;20196;-69
2024/03/11 03:52:38;;;;;;;6.10;5.25;;;20.40;69.40;;;;;;4980617;28;20744;-68
2024/03/11 03:55:05;;;;;;;5.53;4.97;;;20.40;69.40;;;;;;4980472;28;20247;-69
2024/03/11 03:57:32;;;;;;;6.13;5.63;;;20.40;69.30;;;;;;4973077;28;20232;-68
2024/03/11 03:59:59;;;;;;;5.15;4.60;;;20.30;70.20;;;;;;4979641;28;20216;-68
2024/03/11 04:02:26;;;;;;;5.80;5.30;;;20.40;69.50;;;;;;4981191;28;20264;-69
2024/03/11 04:04:53;;;;;;;5.13;4.72;;;20.40;69.50;;;;;;4973467;28;20193;-69
2024/03/11 04:07:21;;;;;;;5.07;4.57;;;20.30;69.30;;;;;;4976819;28;20213;-68
2024/03/11 04:09:48;;;;;;;6.80;4.93;;;20.30;69.20;;;;;;4981072;28;20196;-70
2024/03/11 04:12:16;;;;;;;6.60;5.47;;;20.30;69.20;;;;;;4978392;28;20196;-69
2024/03/11 04:14:43;;;;;;;6.13;4.93;;;20.30;69.20;;;;;;4978645;28;20209;-70
2024/03/11 04:17:12;;;;;;;6.25;5.53;;;20.30;69.20;;;;;;4980393;28;20229;-69
2024/03/11 04:19:39;;;;;;;5.97;5.35;;;20.30;69.20;;;;;;4982827;28;20712;-69
2024/03/11 04:22:06;;;;;;;5.63;5.00;;;20.30;69.20;;;;;;4983641;28;20722;-69
2024/03/11 04:24:36;;;;;;;5.00;4.50;;;20.30;69.30;;;;;;4979462;28;20196;-69
2024/03/11 04:27:05;;;;;;;4.63;4.13;;;20.30;69.40;;;;;;4977706;28;20672;-68
2024/03/11 04:29:31;;;;;;;5.10;4.60;;;20.30;69.30;;;;;;4983081;28;20188;-68
2024/03/11 04:31:58;;;;;;;4.95;4.43;;;20.30;69.30;;;;;;4982541;28;20669;-69
2024/03/11 04:34:26;;;;;;;5.60;4.82;;;20.00;68.90;;;;;;4976059;28;20200;-69
2024/03/11 04:36:53;;;;;;;6.40;4.45;;;20.30;69.30;;;;;;4975239;28;20320;-69
2024/03/11 04:39:20;;;;;;;5.22;4.28;;;20.30;69.20;;;;;;4985311;28;20761;-68
2024/03/11 04:41:48;;;;;;;7.43;4.70;;;20.30;69.40;;;;;;4982484;28;20200;-68
2024/03/11 04:44:15;;;;;;;5.30;4.80;;;20.00;68.90;;;;;;4986330;28;20201;-69
2024/03/11 04:46:41;;;;;;;4.90;4.40;;;20.30;69.20;;;;;;4980844;28;20513;-69
2024/03/11 04:49:08;;;;;;;4.78;4.38;;;20.30;69.20;;;;;;4987020;28;20200;-69
2024/03/11 04:51:35;;;;;;;4.43;4.03;;;20.10;69.10;;;;;;4982737;28;20558;-68
2024/03/11 04:54:02;;;;;;;5.22;4.72;;;20.20;69.20;;;;;;4988217;28;20192;-68
2024/03/11 04:56:30;;;;;;;5.30;4.57;;;20.20;69.20;;;;;;4984271;28;20212;-68
2024/03/11 04:58:59;;;;;;;4.80;4.32;;;20.10;69.00;;;;;;4989219;28;20645;-68
2024/03/11 05:01:26;;;;;;;5.43;4.75;;;20.30;69.30;;;;;;4976889;28;20213;-68
2024/03/11 05:03:53;;;;;;;5.25;4.47;;;20.10;68.90;;;;;;4985346;28;20691;-68
2024/03/11 05:06:20;;;;;;;5.00;4.22;;;20.20;69.10;;;;;;4980976;28;20279;-68
2024/03/11 05:08:47;;;;;;;4.70;4.30;;;20.10;68.90;;;;;;4988622;28;20553;-68
2024/03/11 05:11:14;;;;;;;6.85;4.65;;;20.40;69.30;;;;;;4983543;28;20232;-68
2024/03/11 05:13:41;;;;;;;5.53;4.93;;;20.20;69.10;;;;;;4983866;28;20712;-68
2024/03/11 05:16:09;;;;;;;5.45;4.95;;;20.20;69.20;;;;;;4977474;28;20242;-69
2024/03/11 05:18:36;;;;;;;5.60;5.10;;;20.20;69.20;;;;;;4978026;28;20312;-69
2024/03/11 05:21:04;;;;;;;5.72;5.20;;;20.10;69.10;;;;;;4980644;28;20200;-69
2024/03/11 05:23:30;;;;;;;4.82;4.43;;;20.20;69.00;;;;;;4981603;28;20287;-69
2024/03/11 05:25:59;;;;;;;5.38;4.88;;;20.20;69.20;;;;;;4981360;28;21124;-68
2024/03/11 05:28:26;;;;;;;4.80;4.30;;;20.20;69.20;;;;;;4980186;28;20209;-68
2024/03/11 05:30:53;;;;;;;3.90;3.60;;;20.50;69.50;;;;;;4978146;28;20201;-68
2024/03/11 05:33:21;;;;;;;5.47;4.97;;;19.90;68.80;;;;;;4980319;28;20204;-68
2024/03/11 05:35:47;;;;;;;5.05;4.65;;;20.20;69.20;;;;;;4976236;28;20931;-70
2024/03/11 05:38:14;;;;;;;4.30;3.90;;;20.20;69.20;;;;;;4983031;28;20197;-68
2024/03/11 05:40:43;;;;;;;4.85;4.20;;;20.40;69.30;;;;;;4984313;28;20352;-67
2024/03/11 05:43:10;;;;;;;5.70;4.47;;;20.20;69.20;;;;;;4980933;28;20197;-69
2024/03/11 05:45:36;;;;;;;5.10;4.60;;;20.10;68.90;;;;;;4977395;28;20196;-68
2024/03/11 05:48:04;;;;;;;4.57;4.07;;;20.10;69.00;;;;;;4974092;28;20201;-68
2024/03/11 05:50:32;;;;;;;5.40;4.90;;;20.10;69.00;;;;;;4977600;28;20226;-69
2024/03/11 05:52:59;;;;;;;4.82;4.45;;;20.10;69.00;;;;;;4972627;28;20197;-68
2024/03/11 05:55:32;;;;;;;6.53;5.75;;;20.30;69.20;;;;;;4977408;28;20201;-68
2024/03/11 05:58:02;;;;;;;4.65;4.25;;;20.10;68.90;;;;;;4974500;28;20291;-68
2024/03/11 06:00:31;;;;;;;5.03;4.43;;;20.20;69.10;;;;;;4975133;28;21057;-69
2024/03/11 06:02:58;;;;;;;5.30;4.80;;;20.10;69.00;;;;;;4974724;28;20285;-69
2024/03/11 06:05:24;;;;;;;4.90;4.40;;;20.10;69.00;;;;;;4982282;28;20788;-69
2024/03/11 06:07:53;;;;;;;5.53;5.03;;;20.10;68.90;;;;;;4977001;28;20585;-68
2024/03/11 06:10:20;;;;;;;4.63;4.22;;;20.10;68.90;;;;;;4978152;28;20273;-69
2024/03/11 06:12:48;;;;;;;4.88;4.43;;;20.10;69.00;;;;;;4977812;28;20246;-69
2024/03/11 06:15:15;;;;;;;4.97;4.57;;;20.20;69.00;;;;;;4975835;28;20577;-68
2024/03/11 06:17:42;;;;;;;5.20;4.45;;;19.70;68.50;;;;;;4978536;28;20232;-70
2024/03/11 06:20:13;;;;;;;4.75;3.97;;;20.40;69.30;;;;;;4982988;28;20287;-68
2024/03/11 06:22:40;;;;;;;5.53;4.93;;;20.10;69.00;;;;;;4982470;28;20242;-70
2024/03/11 06:25:09;;;;;;;4.93;4.43;;;20.20;69.10;;;;;;4985379;28;20204;-68
2024/03/11 06:27:37;;;;;;;5.43;4.07;;;20.20;69.10;;;;;;4975950;28;20211;-67
2024/03/11 06:30:04;;;;;;;4.47;4.07;;;20.10;69.10;;;;;;4983270;28;20200;-68
2024/03/11 06:32:32;;;;;;;6.00;5.50;;;20.10;69.10;;;;;;4976619;28;20213;-70
2024/03/11 06:34:58;;;;;;;5.10;4.50;;;20.40;69.40;;;;;;4982073;28;20613;-71
2024/03/11 06:37:25;;;;;;;6.03;5.05;;;20.10;69.10;;;;;;4976286;28;20537;-69
2024/03/11 06:39:52;;;;;;;4.90;4.43;;;20.40;70.20;;;;;;4976507;28;20204;-68
2024/03/11 06:42:20;;;;;;;5.13;4.72;;;20.10;69.00;;;;;;4976033;28;20205;-68
2024/03/11 06:44:46;;;;;;;5.03;3.80;;;20.10;69.10;;;;;;4978818;28;20569;-66
2024/03/11 06:47:14;;;;;;;5.78;5.28;;;20.10;69.60;;;;;;4972848;28;20204;-74
2024/03/11 06:49:41;;;;;;;5.00;4.47;;;19.90;69.20;;;;;;4978513;28;20211;-74
2024/03/11 06:52:09;;;;;;;5.80;4.95;;;20.10;69.50;;;;;;4975982;28;20700;-74
2024/03/11 06:54:36;;;;;;;4.32;3.63;;;20.10;69.40;;;;;;4976626;28;20242;-75
2024/03/11 06:57:02;;;;;;;5.68;5.28;;;20.10;69.50;;;;;;4980694;28;20221;-74
2024/03/11 06:59:31;;;;;;;4.55;4.15;;;20.40;69.80;;;;;;4978017;28;20197;-76
2024/03/11 07:01:58;;;;;;;5.80;5.28;;;19.80;69.10;;;;;;4977342;28;20338;-74
2024/03/11 07:04:25;;;;;;;5.25;4.75;;;20.10;69.40;;;;;;4976458;28;20668;-73
2024/03/11 07:06:52;;;;;;;5.18;4.68;;;20.40;69.70;;;;;;4977894;28;20208;-74
2024/03/11 07:09:19;;;;;;;4.90;4.47;;;20.10;69.40;;;;;;4978552;28;20192;-73
2024/03/11 07:11:46;;;;;;;4.97;4.53;;;20.10;69.50;;;;;;4975151;28;20753;-75
2024/03/11 07:14:13;;;;;;;4.60;4.20;;;20.10;69.40;;;;;;4975142;28;20255;-75
2024/03/11 07:16:43;;;;;;;4.75;4.35;;;20.00;69.40;;;;;;4973900;28;20736;-73
2024/03/11 07:19:10;;;;;;;5.10;4.65;;;20.00;69.30;;;;;;4977937;28;20200;-73
2024/03/11 07:21:37;;;;;;;4.53;4.13;;;20.00;69.30;;;;;;4981371;28;20363;-76
2024/03/11 07:24:05;;;;;;;5.28;4.78;;;20.30;69.60;;;;;;4977613;28;20208;-74
2024/03/11 07:26:31;;;;;;;5.40;4.90;;;20.00;69.30;;;;;;4975818;28;20971;-75
2024/03/11 07:28:58;;;;;;;4.10;3.70;;;20.10;69.30;;;;;;4974619;28;20669;-74
2024/03/11 07:31:25;;;;;;;4.60;4.20;;;20.00;69.40;;;;;;4971048;28;20193;-75
2024/03/11 07:33:54;;;;;;;6.43;5.22;;;20.00;69.40;;;;;;4978156;28;20259;-75
2024/03/11 07:36:20;;;;;;;5.13;4.63;;;20.30;69.90;;;;;;4976658;28;20307;-73
2024/03/11 07:38:48;;;;;;;4.60;4.20;;;20.00;69.60;;;;;;4976829;28;20201;-73
2024/03/11 07:41:15;;;;;;;4.65;4.25;;;20.00;69.50;;;;;;4980048;28;20200;-72
2024/03/11 07:43:41;;;;;;;4.60;4.20;;;20.10;69.70;;;;;;4979162;28;20205;-73
2024/03/11 07:46:08;;;;;;;5.20;4.70;;;20.10;69.70;;;;;;4977511;28;20208;-72
2024/03/11 07:48:35;;;;;;;3.53;3.22;;;20.10;69.60;;;;;;4975842;28;20200;-72
2024/03/11 07:51:04;;;;;;;4.75;4.35;;;20.10;69.70;;;;;;4978430;28;20290;-74
2024/03/11 07:53:30;;;;;;;4.72;4.32;;;20.10;69.60;;;;;;4978487;28;20763;-72
2024/03/11 07:55:57;;;;;;;5.13;4.30;;;20.20;69.80;;;;;;4982126;28;20227;-72
2024/03/11 07:58:24;;;;;;;4.90;4.50;;;20.20;69.80;;;;;;4979709;28;20235;-74
2024/03/11 08:00:51;;;;;;;4.43;4.07;;;20.20;69.80;;;;;;4906640;28;26129;-76
2024/03/11 08:03:19;;;;;;;5.07;4.68;;;20.20;69.90;;;;;;4666961;28;21030;-75
2024/03/11 08:05:49;;;;;;;5.10;4.60;;;20.10;69.70;;;;;;4671538;28;20213;-78
2024/03/11 08:08:18;;;;;;;3.92;3.63;;;20.20;69.80;;;;;;4711234;28;20945;-76
2024/03/11 08:10:50;;;;;;;3.50;3.20;;;20.30;69.90;;;;;;4700038;28;20580;-75
2024/03/11 08:13:18;;;;;;;4.43;4.03;;;20.50;70.20;;;;;;4709405;28;20470;-74
2024/03/11 08:15:45;;;;;;;3.65;3.35;;;20.10;69.50;;;;;;4712161;28;21141;-78
2024/03/11 08:18:13;;;;;;;3.43;3.13;;;20.30;69.80;;;;;;4721995;28;20861;-76
2024/03/11 08:20:40;;;;;;;3.57;3.27;;;20.60;70.20;;;;;;4734761;28;27143;-76
2024/03/11 08:23:09;;;;;;;4.47;4.07;;;20.20;69.70;;;;;;4723861;28;21031;-75
2024/03/11 08:25:44;;;;;;;4.10;3.80;;;20.40;69.80;;;;;;4731853;28;20516;-77
2024/03/11 08:28:14;;;;;;;3.73;3.43;;;20.40;69.70;;;;;;4738230;28;20639;-73
2024/03/11 08:30:45;;;;;;;4.30;3.90;;;20.40;69.80;;;;;;4726180;28;21029;-75
2024/03/11 08:33:14;;;;;;;4.63;4.10;;;20.40;69.80;;;;;;4714534;28;20455;-77
2024/03/11 08:35:41;;;;;;;4.13;3.35;;;20.30;69.60;;;;;;4725344;28;21118;-76
2024/03/11 08:38:09;;;;;;;4.35;3.95;;;20.40;70.00;;;;;;4759844;28;20230;-75
2024/03/11 08:40:38;;;;;;;4.10;3.60;;;20.40;69.80;;;;;;4823268;28;21509;-73
2024/03/11 08:43:05;;;;;;;4.93;4.53;;;20.40;69.70;;;;;;4824912;28;20854;-74
2024/03/11 08:45:32;;;;;;;5.37;4.97;;;20.50;69.80;;;;;;4816073;28;20372;-76
2024/03/11 08:47:59;;;;;;;5.23;4.73;;;20.50;69.70;;;;;;4817570;28;20478;-78
2024/03/11 08:50:26;;;;;;;4.93;4.43;;;20.50;69.70;;;;;;4815036;28;20467;-75
2024/03/11 08:52:53;;;;;;;5.43;4.60;;;20.40;69.60;;;;;;4809583;28;20380;-76
2024/03/11 08:55:20;;;;;;;5.27;4.70;;;20.50;69.70;;;;;;4802095;28;21957;-77
2024/03/11 08:57:49;;;;;;;5.15;4.75;;;20.50;69.60;;;;;;4797241;28;20525;-75
2024/03/11 09:00:16;;;;;;;4.40;4.10;;;20.50;69.60;;;;;;4782285;28;20809;-75
2024/03/11 09:02:44;;;;;;;5.55;3.72;;;20.50;69.50;;;;;;4801155;28;21335;-75
2024/03/11 09:05:12;;;;;;;4.33;3.97;;;20.50;69.60;;;;;;4802550;28;20247;-76
2024/03/11 09:07:40;;;;;;;4.20;3.80;;;20.50;69.70;;;;;;4803029;28;21138;-78
2024/03/11 09:10:08;;;;;;;6.03;4.13;;;20.50;69.60;;;;;;4791172;28;22235;-75
2024/03/11 09:12:34;;;;;;;5.27;4.87;;;20.40;69.50;;;;;;4791846;28;20745;-75
2024/03/11 09:15:04;;;;;;;3.77;3.47;;;20.40;69.40;;;;;;4790457;28;20568;-76
2024/03/11 09:17:31;;;;;;;4.60;4.20;;;20.60;69.60;;;;;;4791383;28;28043;-74
2024/03/11 09:19:57;;;;;;;4.40;4.00;;;20.60;69.60;;;;;;4801138;28;20467;-75
2024/03/11 09:22:26;;;;;;;4.80;4.40;;;20.60;69.60;;;;;;4800977;28;20464;-77
2024/03/11 09:24:53;;;;;;;4.60;4.18;;;20.60;69.60;;;;;;4793455;28;20299;-75
2024/03/11 09:27:20;;;;;;;5.50;5.00;;;20.30;69.20;;;;;;4793048;28;20215;-77
2024/03/11 09:29:48;;;;;;;5.00;4.43;;;20.60;69.50;;;;;;4924060;28;20879;-73
2024/03/11 09:32:16;;;;;;;4.35;3.95;;;20.60;69.50;;;;;;4977911;28;20752;-74
2024/03/11 09:34:45;;;;;;;4.80;3.55;;;20.60;69.50;;;;;;4980486;28;20197;-76
2024/03/11 09:37:11;;;;;;;4.57;4.10;;;20.40;69.30;;;;;;4979499;28;20653;-73
2024/03/11 09:39:38;;;;;;;4.30;3.90;;;20.60;69.40;;;;;;4978655;28;20200;-77
2024/03/11 09:42:09;;;;;;;5.43;4.50;;;20.60;69.40;;;;;;4980909;28;20209;-71
2024/03/11 09:44:36;;;;;;;6.00;4.68;;;20.50;69.20;;;;;;4978976;28;20622;-71
2024/03/11 09:47:04;;;;;;;4.15;3.85;;;20.60;69.30;;;;;;4978407;28;20205;-74
2024/03/11 09:49:33;;;;;;;4.28;3.88;;;20.60;69.30;;;;;;4978131;28;20200;-72
2024/03/11 09:52:02;;;;;;;3.70;3.40;;;20.40;69.10;;;;;;4982239;28;20197;-74
2024/03/11 09:54:29;;;;;;;4.47;3.88;;;20.60;69.30;;;;;;4975378;28;20895;-74
2024/03/11 09:56:56;;;;;;;4.43;4.03;;;20.70;69.50;;;;;;4983256;28;20209;-74
2024/03/11 09:59:24;;;;;;;4.38;3.97;;;20.70;69.40;;;;;;4982175;28;20201;-74
2024/03/11 10:01:53;;;;;;;4.13;3.75;;;20.40;69.00;;;;;;4979016;28;20212;-74
2024/03/11 10:04:22;;;;;;;3.90;3.50;;;20.70;69.40;;;;;;4981341;28;20200;-73
2024/03/11 10:06:57;;;;;;;4.35;4.00;;;20.70;69.30;;;;;;4983921;28;20204;-73
2024/03/11 10:09:24;;;;;;;3.70;3.40;;;20.60;69.20;;;;;;4985242;28;20291;-73
2024/03/11 10:12:07;;;;;;;4.30;3.90;;;20.70;69.30;;;;;;4979899;28;20228;-74
2024/03/11 10:14:35;;;;;;;4.18;3.78;;;20.70;69.30;;;;;;4984586;28;20208;-74
2024/03/11 10:17:20;;;;;;;3.80;3.50;;;21.00;69.60;;;;;;4969475;28;20308;-75
2024/03/11 10:19:47;;;;;;;3.65;3.35;;;21.00;69.60;;;;;;4983049;28;20678;-72
2024/03/11 10:22:22;;;;;;;4.20;3.90;;;20.50;69.00;;;;;;4980048;28;20810;-75
2024/03/11 10:24:52;;;;;;;4.30;3.65;;;20.80;69.30;;;;;;4984427;28;20679;-74
2024/03/11 10:27:19;;;;;;;4.13;3.72;;;20.70;69.20;;;;;;4980543;28;20327;-73
2024/03/11 10:29:46;;;;;;;4.75;4.35;;;20.70;69.20;;;;;;4986571;28;20987;-73
2024/03/11 10:32:33;;;;;;;3.45;3.15;;;20.70;69.10;;;;;;4986702;28;20315;-72
2024/03/11 10:35:00;;;;;;;3.78;3.45;;;20.70;69.00;;;;;;4983829;28;20287;-75
2024/03/11 10:37:28;;;;;;;4.35;3.95;;;20.60;68.90;;;;;;4979754;28;20220;-72
2024/03/11 10:39:59;;;;;;;4.40;4.03;;;20.80;69.20;;;;;;4987752;28;20208;-71
2024/03/11 10:42:28;;;;;;;3.90;3.42;;;20.70;69.00;;;;;;4979792;28;20207;-73
2024/03/11 10:44:55;;;;;;;4.20;3.80;;;20.80;69.10;;;;;;4976688;28;20522;-77
2024/03/11 10:47:24;;;;;;;4.72;4.30;;;20.70;69.00;;;;;;4977995;28;20291;-73
2024/03/11 10:49:53;;;;;;;4.30;4.00;;;20.80;69.00;;;;;;4980923;28;20196;-73
2024/03/11 10:52:22;;;;;;;3.40;3.20;;;20.50;68.70;;;;;;4979323;28;20677;-74
2024/03/11 10:54:54;;;;;;;4.28;3.88;;;20.80;69.10;;;;;;4978987;28;20598;-72
2024/03/11 10:57:33;;;;;;;11.32;4.00;;;20.80;69.00;;;;;;4974902;28;20221;-66
2024/03/11 11:00:02;;;;;;;8.50;3.63;;;20.80;69.00;;;;;;4977246;28;20201;-69
2024/03/11 11:02:32;;;;;;;6.30;3.80;;;20.50;68.90;;;;;;4985747;28;20626;-67
2024/03/11 11:05:05;;;;;;;5.00;3.42;;;20.80;69.30;;;;;;4980807;28;20201;-67
2024/03/11 11:07:33;;;;;;;7.57;3.25;;;20.80;69.60;;;;;;4970704;28;20258;-69
2024/03/11 11:10:03;;;;;;;6.13;3.55;;;20.80;69.70;;;;;;4977165;28;20200;-70
2024/03/11 11:12:30;;;;;;;3.85;3.47;;;21.10;70.10;;;;;;4981081;28;20200;-67
2024/03/11 11:15:00;;;;;;;3.65;3.35;;;20.80;69.90;;;;;;4984726;28;20331;-68
2024/03/11 11:17:29;;;;;;;3.95;3.10;;;20.80;69.90;;;;;;4985892;28;20229;-73
2024/03/11 11:19:58;;;;;;;3.90;3.60;;;20.60;69.80;;;;;;4983104;28;20203;-69
2024/03/11 11:22:26;;;;;;;3.55;3.25;;;20.80;70.20;;;;;;4982703;28;20574;-71
2024/03/11 11:24:53;;;;;;;3.55;3.25;;;20.70;70.10;;;;;;4984193;28;20330;-72
2024/03/11 11:27:27;;;;;;;3.47;3.20;;;21.00;70.40;;;;;;4983699;28;20204;-79
2024/03/11 11:30:13;;;;;;;4.25;3.90;;;21.00;70.40;;;;;;4984486;28;20668;-75
2024/03/11 11:32:42;;;;;;;4.05;2.75;;;21.00;70.50;;;;;;4988893;28;20228;-83
2024/03/11 11:35:09;;;;;;;4.00;3.40;;;21.10;70.60;;;;;;4987284;28;20203;-78
2024/03/11 11:37:39;;;;;;;3.40;2.70;;;21.40;70.90;;;;;;4983198;28;20219;-76
2024/03/11 11:40:33;;;;;;;3.15;2.88;;;21.20;70.60;;;;;;4986018;28;20211;-73
2024/03/11 11:43:04;;;;;;;3.85;3.45;;;21.20;70.60;;;;;;4985170;28;20239;-75
2024/03/11 11:45:50;;;;;;;3.50;3.20;;;21.20;70.50;;;;;;4987792;28;20772;-77
2024/03/11 11:48:21;;;;;;;3.00;2.80;;;21.20;70.40;;;;;;4984693;28;20349;-74
2024/03/11 11:50:48;;;;;;;3.30;3.10;;;21.10;70.30;;;;;;4990067;28;20280;-76
2024/03/11 11:53:29;;;;;;;2.90;2.70;;;21.30;70.40;;;;;;4981146;28;20673;-77
2024/03/11 11:55:57;;;;;;;4.15;3.75;;;21.30;70.40;;;;;;4981517;28;20430;-79
2024/03/11 11:58:26;;;;;;;3.60;2.92;;;21.30;70.40;;;;;;4975797;28;20848;-75
2024/03/11 12:01:01;;;;;;;3.45;3.15;;;21.30;70.40;;;;;;4982909;28;20208;-76
2024/03/11 12:03:30;;;;;;;3.13;2.83;;;21.30;70.40;;;;;;4988993;28;20693;-75
2024/03/11 12:06:18;;;;;;;2.95;2.65;;;21.30;70.30;;;;;;4986704;28;20287;-68
2024/03/11 12:08:45;;;;;;;4.03;3.08;;;21.40;70.40;;;;;;4978930;28;20202;-67
2024/03/11 12:11:15;;;;;;;3.33;3.03;;;21.40;70.30;;;;;;4982111;28;20212;-69
2024/03/11 12:13:44;;;;;;;2.63;2.42;;;21.40;70.30;;;;;;4982017;28;20216;-69
2024/03/11 12:16:13;;;;;;;3.33;3.03;;;21.30;70.20;;;;;;4982787;28;20204;-68
2024/03/11 12:18:42;;;;;;;3.45;3.15;;;21.40;70.30;;;;;;4993865;28;20732;-69
2024/03/11 12:21:13;;;;;;;3.63;3.10;;;21.40;70.30;;;;;;4984042;28;20201;-71
2024/03/11 12:23:41;;;;;;;3.38;3.08;;;21.60;70.50;;;;;;4990591;28;20921;-70
2024/03/11 12:26:12;;;;;;;3.47;3.17;;;21.50;70.30;;;;;;4983712;28;20220;-71
2024/03/11 12:28:43;;;;;;;3.17;2.88;;;21.50;70.30;;;;;;4993781;28;20732;-71
2024/03/11 12:31:15;;;;;;;3.60;3.30;;;21.50;70.30;;;;;;4988021;28;20193;-73
2024/03/11 12:33:44;;;;;;;3.65;3.35;;;21.50;70.20;;;;;;4987550;28;20211;-71
2024/03/11 12:36:13;;;;;;;3.25;2.95;;;21.50;70.30;;;;;;4982370;28;20193;-72
2024/03/11 12:38:42;;;;;;;2.95;2.72;;;21.60;70.40;;;;;;4990243;28;20229;-68
2024/03/11 12:41:09;;;;;;;3.05;2.50;;;21.60;70.30;;;;;;4984563;28;20207;-69
2024/03/11 12:43:41;;;;;;;3.05;2.85;;;21.60;70.30;;;;;;4985554;28;20226;-69
2024/03/11 12:46:11;;;;;;;3.22;2.95;;;21.70;70.40;;;;;;4981689;28;20205;-71
2024/03/11 12:48:40;;;;;;;2.97;2.77;;;21.60;70.20;;;;;;4982666;28;20246;-77
2024/03/11 12:51:09;;;;;;;3.53;3.23;;;21.60;70.30;;;;;;4982100;28;20671;-77